createdAt,value
2022-10-19T00:05:49.398Z,1511.56282
2022-10-19T00:20:51.241Z,1502.24267
2022-10-19T00:35:53.065Z,1502.24267
2022-10-19T00:50:54.890Z,1500.56043
2022-10-19T01:05:56.748Z,1492.20542
2022-10-19T01:20:58.619Z,1497.20722
2022-10-19T01:36:00.474Z,1002.24433
2022-10-19T01:51:02.295Z,1019.01191
2022-10-19T02:06:04.213Z,1045.24231
2022-10-19T02:21:06.037Z,1075.44191
2022-10-19T02:36:07.875Z,944.99345
2022-10-19T02:51:09.683Z,794.78104
2022-10-19T03:06:11.552Z,649.8361
2022-10-19T03:21:13.397Z,473.69524
2022-10-19T03:27:25.475Z,472.69165
2022-10-19T03:42:27.331Z,1245.35367
2022-10-19T03:57:29.183Z,1266.54115
2022-10-19T04:12:31.064Z,1218.18232
2022-10-19T04:27:33.217Z,1193.23292
2022-10-19T04:42:35.294Z,1179.57797
2022-10-19T04:57:37.244Z,1198.56938
2022-10-19T05:12:39.121Z,1308.59426
2022-10-19T05:27:40.970Z,1380.02111
2022-10-19T05:42:42.818Z,1388.60155
2022-10-19T05:57:44.693Z,1377.18448
2022-10-19T06:12:46.533Z,1559.04645
2022-10-19T06:27:48.395Z,1680.25128
2022-10-19T06:42:50.264Z,1735.75179
2022-10-19T06:57:52.215Z,1702.66886
2022-10-19T07:12:54.064Z,1716.84867
2022-10-19T07:27:55.919Z,1755.07581
2022-10-19T07:42:57.752Z,1802.28698
2022-10-19T07:57:59.573Z,1810.81131
2022-10-19T08:13:01.420Z,1838.13493
2022-10-19T08:28:03.240Z,1878.06637
2022-10-19T08:43:05.052Z,1907.47381
2022-10-19T08:58:06.921Z,1899.36265
2022-10-19T09:13:08.782Z,1826.85803
2022-10-19T09:28:10.624Z,1849.55191
2022-10-19T09:43:12.555Z,1848.27636
2022-10-19T09:58:14.416Z,1813.26166
2022-10-19T10:13:16.250Z,1810.81131
2022-10-19T10:28:18.102Z,1783.10096
2022-10-19T10:43:19.970Z,1744.79216
2022-10-19T10:58:25.473Z,1134.63217
2022-10-19T11:13:30.038Z,235.48211
2022-10-19T11:28:31.893Z,276.15729
2022-10-19T11:43:33.769Z,307.62668
2022-10-19T11:58:35.611Z,371.4697
2022-10-19T12:13:37.436Z,685.08819
2022-10-19T12:28:39.277Z,722.04006
2022-10-19T12:43:41.135Z,769.6731
2022-10-19T12:58:47.632Z,822.08639
2022-10-19T13:17:34.066Z,1120.40184
2022-10-19T13:32:36.587Z,1186.89156
2022-10-19T13:47:38.882Z,1264.15145
2022-10-19T14:02:40.742Z,1338.66185
2022-10-19T14:17:42.583Z,697.94698
2022-10-19T14:32:44.438Z,665.33914
2022-10-19T14:47:46.322Z,803.35781
2022-10-19T15:02:48.152Z,716.62863
2022-10-19T15:17:50.004Z,987.47287
2022-10-19T15:32:51.885Z,1153.18467
2022-10-19T15:47:53.791Z,1240.74125
2022-10-19T16:02:55.731Z,1316.30699
2022-10-19T16:17:57.648Z,1012.85008
2022-10-19T16:32:59.532Z,678.83485
2022-10-19T16:48:01.454Z,669.33117
2022-10-19T17:03:03.466Z,693.60742
2022-10-19T17:18:05.385Z,985.29462
2022-10-19T17:33:07.422Z,1419.49204
2022-10-19T17:48:09.325Z,1571.848
2022-10-19T18:03:11.310Z,1719.05117
2022-10-19T18:18:13.276Z,1734.62833
2022-10-19T18:33:15.187Z,1844.46024
2022-10-19T18:48:17.052Z,1903.40959
2022-10-19T19:03:21.055Z,1969.14084
2022-10-19T19:18:23.254Z,2024.16968
2022-10-19T19:33:26.395Z,2075.91065
2022-10-19T19:48:28.634Z,2115.23334
2022-10-19T20:03:30.464Z,2144.0005
2022-10-19T20:18:32.442Z,1930.83623
2022-10-19T20:33:35.469Z,1914.28621
2022-10-19T20:48:37.803Z,1879.38339
2022-10-19T21:03:39.892Z,1838.13493
2022-10-19T21:18:41.883Z,1864.99702
2022-10-19T21:33:43.758Z,1867.59632
2022-10-19T21:48:45.954Z,1912.91984
2022-10-19T22:03:48.055Z,1908.83241
2022-10-19T22:18:50.321Z,1903.40959
2022-10-19T22:33:52.662Z,1914.28621
2022-10-19T22:48:54.768Z,1882.02297
2022-10-19T23:03:56.900Z,1843.19169
2022-10-19T23:18:58.843Z,1824.37082
2022-10-19T23:34:02.401Z,1760.84149
2022-10-19T23:49:04.749Z,1683.41758
